Terminal Aerodrome Forecast
Issued by NWS

Home | Current Version | Previous Version | Text Only | Print | Product List | Glossary On
Versions: 1 2 3 4 5 6 7 8 9 10 11 12 13 14 15 16 17 18
000
FTUS43 KAPX 231120
TAFTVC
TAF
KTVC 231120Z 2312/2412 VRB03KT P6SM SKC
     FM231600 02007KT P6SM FEW250
     FM240100 VRB03KT P6SM SCT150 BKN250=

USA.gov is the U.S. government's official web portal to all federal, state and local government web resources and services.